createdAt,value
2017-03-23T00:00:06.795Z,930.57
2017-03-23T00:00:26.865Z,930.57
2017-03-23T00:00:46.931Z,930.55
2017-03-23T00:01:06.391Z,930.55
2017-03-23T00:01:26.446Z,930.55
2017-03-23T00:01:46.464Z,930.58
2017-03-23T00:02:06.535Z,930.55
2017-03-23T00:02:26.585Z,930.55
2017-03-23T00:02:46.616Z,930.58
2017-03-23T00:03:06.088Z,930.56
2017-03-23T00:03:26.119Z,930.55
2017-03-23T00:03:46.135Z,930.53
2017-03-23T00:04:05.061Z,930.53
2017-03-23T00:04:25.102Z,930.55
2017-03-23T00:04:44.561Z,930.53
2017-03-23T00:05:04.590Z,930.58
2017-03-23T00:05:24.208Z,930.57
2017-03-23T00:05:44.239Z,930.58
2017-03-23T00:06:03.694Z,930.59
2017-03-23T00:06:23.195Z,930.53
2017-03-23T00:06:43.226Z,930.53
2017-03-23T00:07:03.261Z,930.58
2017-03-23T00:07:23.286Z,930.51
2017-03-23T00:07:43.382Z,930.58
2017-03-23T00:08:03.420Z,930.62
2017-03-23T00:08:23.445Z,930.56
2017-03-23T00:08:43.485Z,930.57
2017-03-23T00:09:02.944Z,930.59
2017-03-23T00:09:22.958Z,930.56
2017-03-23T00:09:42.456Z,930.53
2017-03-23T00:10:02.499Z,930.61
2017-03-23T00:10:22.532Z,930.58
2017-03-23T00:10:42.572Z,930.6
2017-03-23T00:11:02.063Z,930.57
2017-03-23T00:11:21.527Z,930.59
2017-03-23T00:11:41.540Z,930.63
2017-03-23T00:12:00.447Z,930.61
2017-03-23T00:12:19.357Z,930.6
2017-03-23T00:12:39.410Z,930.57
2017-03-23T00:12:59.445Z,930.58
2017-03-23T00:13:19.520Z,930.56
2017-03-23T00:13:38.435Z,930.57
2017-03-23T00:13:58.478Z,930.56
2017-03-23T00:14:17.978Z,930.59
2017-03-23T00:14:38.019Z,930.57
2017-03-23T00:14:57.488Z,930.63
2017-03-23T00:15:16.383Z,930.59
2017-03-23T00:15:36.417Z,930.59
2017-03-23T00:15:55.384Z,930.59
2017-03-23T00:16:15.444Z,930.58
2017-03-23T00:16:35.510Z,930.61
2017-03-23T00:16:54.403Z,930.56
2017-03-23T00:17:14.442Z,930.63
2017-03-23T00:17:33.928Z,930.63
2017-03-23T00:17:52.830Z,930.6
2017-03-23T00:18:12.881Z,930.61
2017-03-23T00:18:32.948Z,930.6
2017-03-23T00:18:52.418Z,930.59
2017-03-23T00:19:12.471Z,930.59
2017-03-23T00:19:31.950Z,930.63
2017-03-23T00:19:50.886Z,930.58
2017-03-23T00:20:10.950Z,930.6
2017-03-23T00:20:29.289Z,930.62
2017-03-23T00:20:48.736Z,930.61
2017-03-23T00:21:08.227Z,930.57
2017-03-23T00:21:28.272Z,930.58
2017-03-23T00:21:48.334Z,930.64
2017-03-23T00:22:07.795Z,930.61
2017-03-23T00:22:27.280Z,930.6
2017-03-23T00:22:46.733Z,930.65
2017-03-23T00:23:06.794Z,930.6
2017-03-23T00:23:26.840Z,930.6
2017-03-23T00:23:46.289Z,930.64
2017-03-23T00:24:06.333Z,930.6
2017-03-23T00:24:26.015Z,930.63
2017-03-23T00:24:46.051Z,930.63
2017-03-23T00:25:06.067Z,930.67
2017-03-23T00:25:26.220Z,930.69
2017-03-23T00:25:46.322Z,930.63
2017-03-23T00:26:06.355Z,930.62
2017-03-23T00:26:26.437Z,930.66
2017-03-23T00:26:46.466Z,930.6
2017-03-23T00:27:06.523Z,930.65
2017-03-23T00:27:24.872Z,930.66
2017-03-23T00:27:44.922Z,930.63
2017-03-23T00:28:04.953Z,930.68
2017-03-23T00:28:24.468Z,930.67
2017-03-23T00:28:43.942Z,930.67
2017-03-23T00:29:03.424Z,930.63
2017-03-23T00:29:23.460Z,930.66
2017-03-23T00:29:42.941Z,930.66
2017-03-23T00:30:01.845Z,930.66
2017-03-23T00:30:21.306Z,930.69
2017-03-23T00:30:40.770Z,930.63
2017-03-23T00:31:00.256Z,930.54
2017-03-23T00:31:20.344Z,930.62
2017-03-23T00:31:40.382Z,930.62
2017-03-23T00:31:58.707Z,930.64
2017-03-23T00:32:18.758Z,930.71
2017-03-23T00:32:37.686Z,930.66
2017-03-23T00:32:57.720Z,930.67
2017-03-23T00:33:18.661Z,930.64
2017-03-23T00:33:37.584Z,930.66
2017-03-23T00:33:57.629Z,930.66
2017-03-23T00:34:17.123Z,930.64
2017-03-23T00:34:37.194Z,930.65
2017-03-23T00:34:57.250Z,930.63
2017-03-23T00:35:16.711Z,930.65
2017-03-23T00:35:36.177Z,930.54
2017-03-23T00:35:56.230Z,930.67
2017-03-23T00:36:16.279Z,930.67
2017-03-23T00:36:35.763Z,930.69
2017-03-23T00:36:54.682Z,930.7
2017-03-23T00:37:14.726Z,930.64
2017-03-23T00:37:48.442Z,930.73
2017-03-23T00:38:08.450Z,930.66
2017-03-23T00:38:28.696Z,930.66
2017-03-23T00:38:48.351Z,930.72
2017-03-23T00:39:10.546Z,930.71
2017-03-23T00:39:30.007Z,930.7
2017-03-23T00:39:50.051Z,930.68
2017-03-23T00:40:10.101Z,930.71
2017-03-23T00:40:30.289Z,930.7
2017-03-23T00:40:49.802Z,930.66
2017-03-23T00:41:09.274Z,930.73
2017-03-23T00:41:29.364Z,930.71
2017-03-23T00:41:48.837Z,930.72
2017-03-23T00:42:08.346Z,930.69
2017-03-23T00:42:27.782Z,930.72
2017-03-23T00:42:47.257Z,930.71
2017-03-23T00:43:06.723Z,930.72
2017-03-23T00:43:26.735Z,930.74
2017-03-23T00:43:46.826Z,930.75
2017-03-23T00:44:06.942Z,930.7
2017-03-23T00:45:00.261Z,930.7
2017-03-23T00:45:19.064Z,930.72
2017-03-23T00:45:37.892Z,930.71
2017-03-23T00:45:57.223Z,930.68
2017-03-23T00:46:15.537Z,930.71
2017-03-23T00:46:34.975Z,930.74
2017-03-23T00:46:54.327Z,930.71
2017-03-23T00:47:13.677Z,930.69
2017-03-23T00:47:33.055Z,930.67
2017-03-23T00:47:51.896Z,930.72
2017-03-23T00:48:10.695Z,930.71
2017-03-23T00:48:30.042Z,930.75
2017-03-23T00:48:49.372Z,930.71
2017-03-23T00:49:08.185Z,930.72
2017-03-23T00:49:27.019Z,930.75
2017-03-23T00:49:46.351Z,930.76
2017-03-23T00:50:05.350Z,930.75
2017-03-23T00:50:23.858Z,930.74
2017-03-23T00:50:42.668Z,930.77
2017-03-23T00:51:02.013Z,930.74
2017-03-23T00:51:21.390Z,930.76
2017-03-23T00:51:40.708Z,930.77
2017-03-23T00:51:59.008Z,930.74
2017-03-23T00:52:18.361Z,930.81
2017-03-23T00:52:37.685Z,930.73
2017-03-23T00:52:57.003Z,930.79
2017-03-23T00:53:15.883Z,930.82
2017-03-23T00:53:35.236Z,930.78
2017-03-23T00:53:54.567Z,930.8
2017-03-23T00:54:13.906Z,930.79
2017-03-23T00:54:33.231Z,930.82
2017-03-23T00:54:52.047Z,930.85
2017-03-23T00:55:11.398Z,930.79
2017-03-23T00:55:30.729Z,930.81
2017-03-23T00:55:50.085Z,930.81
2017-03-23T00:56:09.401Z,930.83
2017-03-23T00:56:28.719Z,930.82
2017-03-23T00:56:48.075Z,930.84
2017-03-23T00:57:06.400Z,930.82
2017-03-23T00:57:25.765Z,930.84
2017-03-23T00:57:45.114Z,930.81
2017-03-23T00:58:03.912Z,930.85
2017-03-23T00:58:22.731Z,930.82
2017-03-23T00:58:41.557Z,930.85
2017-03-23T00:59:00.418Z,930.82
2017-03-23T00:59:19.741Z,930.85
2017-03-23T00:59:39.087Z,930.83
2017-03-23T00:59:57.935Z,930.83
2017-03-23T01:00:17.310Z,930.84
2017-03-23T01:00:36.248Z,930.77
2017-03-23T01:00:54.587Z,930.81
2017-03-23T01:01:13.426Z,930.85
2017-03-23T01:01:32.791Z,930.86
2017-03-23T01:01:51.099Z,930.83
2017-03-23T01:02:09.915Z,930.86
2017-03-23T01:02:29.259Z,930.88
2017-03-23T01:02:48.607Z,930.86
2017-03-23T01:03:07.952Z,930.88
2017-03-23T01:03:26.744Z,930.85
2017-03-23T01:03:45.541Z,930.86
2017-03-23T01:04:03.838Z,930.89
2017-03-23T01:04:22.650Z,930.87
2017-03-23T01:04:41.968Z,930.94
2017-03-23T01:05:01.294Z,930.92
2017-03-23T01:05:20.119Z,930.9
2017-03-23T01:05:38.911Z,930.85
2017-03-23T01:05:57.198Z,930.86
2017-03-23T01:06:16.026Z,930.9
2017-03-23T01:06:35.364Z,930.89
2017-03-23T01:06:54.196Z,930.93
2017-03-23T01:07:13.013Z,930.93
2017-03-23T01:07:31.835Z,930.89
2017-03-23T01:07:51.176Z,930.86
2017-03-23T01:08:10.012Z,930.93
2017-03-23T01:08:28.844Z,930.93
2017-03-23T01:08:48.191Z,930.93
2017-03-23T01:09:06.491Z,930.93
2017-03-23T01:09:25.806Z,930.85
2017-03-23T01:09:44.115Z,930.86
2017-03-23T01:10:03.426Z,930.92
2017-03-23T01:10:21.746Z,930.93
2017-03-23T01:10:40.601Z,930.95
2017-03-23T01:10:58.921Z,930.92
2017-03-23T01:11:17.734Z,930.91
2017-03-23T01:11:37.046Z,930.84
2017-03-23T01:11:56.384Z,930.93
2017-03-23T01:12:15.222Z,930.89
2017-03-23T01:12:34.541Z,930.94
2017-03-23T01:12:53.386Z,930.96
2017-03-23T01:13:12.714Z,930.91
2017-03-23T01:13:32.034Z,930.98
2017-03-23T01:13:51.386Z,930.93
2017-03-23T01:14:10.751Z,930.95
2017-03-23T01:14:30.096Z,931.03
2017-03-23T01:14:49.433Z,930.95
2017-03-23T01:15:08.765Z,930.91
2017-03-23T01:15:27.598Z,930.93
2017-03-23T01:15:46.411Z,930.98
2017-03-23T01:16:04.718Z,930.94
2017-03-23T01:16:23.530Z,930.92
2017-03-23T01:16:42.341Z,930.96
2017-03-23T01:17:01.663Z,930.95
2017-03-23T01:17:21.027Z,930.95
2017-03-23T01:17:40.365Z,930.92
2017-03-23T01:17:59.174Z,930.93
2017-03-23T01:18:18.516Z,930.94
2017-03-23T01:18:37.866Z,930.94
2017-03-23T01:18:56.180Z,930.93
2017-03-23T01:19:14.982Z,930.92
2017-03-23T01:19:34.333Z,930.9
2017-03-23T01:19:53.158Z,930.88
2017-03-23T01:20:12.518Z,930.91
2017-03-23T01:20:31.868Z,930.89
2017-03-23T01:20:50.697Z,930.96
2017-03-23T01:21:09.528Z,930.84
2017-03-23T01:21:28.879Z,930.87
2017-03-23T01:21:47.203Z,930.87
2017-03-23T01:22:06.562Z,930.91
2017-03-23T01:22:25.901Z,930.89
2017-03-23T01:22:44.740Z,930.96
2017-03-23T01:23:03.603Z,930.94
2017-03-23T01:23:22.931Z,930.92
2017-03-23T01:23:41.211Z,930.9
2017-03-23T01:24:00.046Z,930.91
2017-03-23T01:24:18.895Z,930.96
2017-03-23T01:24:38.238Z,930.91
2017-03-23T01:24:57.636Z,930.94
2017-03-23T01:25:16.437Z,930.95
2017-03-23T01:25:35.776Z,930.97
2017-03-23T01:25:55.113Z,930.98
2017-03-23T01:26:14.419Z,930.97
2017-03-23T01:26:33.236Z,930.98
2017-03-23T01:26:52.557Z,930.96
2017-03-23T01:27:11.366Z,930.96
2017-03-23T01:27:30.735Z,930.98
2017-03-23T01:27:49.564Z,931.01
2017-03-23T01:28:08.373Z,931
2017-03-23T01:28:27.707Z,930.99
2017-03-23T01:28:47.021Z,930.97
2017-03-23T01:29:05.814Z,930.95
2017-03-23T01:29:24.627Z,930.99
2017-03-23T01:29:43.934Z,930.92
2017-03-23T01:30:03.278Z,930.89
2017-03-23T01:30:22.623Z,930.95
2017-03-23T01:30:41.944Z,930.96
2017-03-23T01:31:00.736Z,930.94
2017-03-23T01:31:20.079Z,930.99
2017-03-23T01:31:39.419Z,930.95
2017-03-23T01:31:58.250Z,930.93
2017-03-23T01:32:17.617Z,930.97
2017-03-23T01:32:36.968Z,930.95
2017-03-23T01:32:56.285Z,930.95
2017-03-23T01:33:15.609Z,930.92
2017-03-23T01:33:34.947Z,930.91
2017-03-23T01:33:53.775Z,930.92
2017-03-23T01:34:12.063Z,930.92
2017-03-23T01:34:30.874Z,930.88
2017-03-23T01:34:50.228Z,930.89
2017-03-23T01:35:09.580Z,930.87
2017-03-23T01:35:28.923Z,930.88
2017-03-23T01:35:47.731Z,930.88
2017-03-23T01:36:06.540Z,930.88
2017-03-23T01:36:25.320Z,930.86
2017-03-23T01:36:44.114Z,930.89
2017-03-23T01:37:03.460Z,930.82
2017-03-23T01:37:22.294Z,930.86
2017-03-23T01:37:41.648Z,930.84
2017-03-23T01:38:00.961Z,930.84
2017-03-23T01:38:20.289Z,930.81
2017-03-23T01:38:39.704Z,930.81
2017-03-23T01:38:58.501Z,930.76
2017-03-23T01:39:17.803Z,930.82
2017-03-23T01:39:37.144Z,930.78
2017-03-23T01:39:55.425Z,930.75
2017-03-23T01:40:14.761Z,930.77
2017-03-23T01:40:34.105Z,930.77
2017-03-23T01:40:52.976Z,930.75
2017-03-23T01:41:12.327Z,930.76
2017-03-23T01:41:31.657Z,930.77
2017-03-23T01:41:50.500Z,930.78
2017-03-23T01:42:09.823Z,930.82
2017-03-23T01:42:29.198Z,930.82
2017-03-23T01:42:47.989Z,930.83
2017-03-23T01:43:07.337Z,930.8
2017-03-23T01:43:26.699Z,930.79
2017-03-23T01:43:45.500Z,930.78
2017-03-23T01:44:04.297Z,930.79
2017-03-23T01:44:23.092Z,930.8
2017-03-23T01:44:41.879Z,930.84
2017-03-23T01:45:00.761Z,930.85
2017-03-23T01:45:19.592Z,930.82
2017-03-23T01:45:38.944Z,930.85
2017-03-23T01:45:57.745Z,930.8
2017-03-23T01:46:16.550Z,930.81
2017-03-23T01:46:35.392Z,930.79
2017-03-23T01:46:54.735Z,930.82
2017-03-23T01:47:13.031Z,930.82
2017-03-23T01:47:32.367Z,930.76
2017-03-23T01:47:51.733Z,930.8
2017-03-23T01:48:10.534Z,930.8
2017-03-23T01:48:29.390Z,930.81
2017-03-23T01:48:48.725Z,930.84
2017-03-23T01:49:07.024Z,930.84
2017-03-23T01:49:26.356Z,930.78
2017-03-23T01:49:45.746Z,930.77
2017-03-23T01:50:03.531Z,930.76
2017-03-23T01:50:22.379Z,930.74
2017-03-23T01:50:41.722Z,930.77
2017-03-23T01:51:01.091Z,930.74
2017-03-23T01:51:20.439Z,930.79
2017-03-23T01:51:39.801Z,930.8
2017-03-23T01:51:59.168Z,930.8
2017-03-23T01:52:18.490Z,930.77
2017-03-23T01:52:37.852Z,930.77
2017-03-23T01:52:56.143Z,930.84
2017-03-23T01:53:15.470Z,930.77
2017-03-23T01:53:34.815Z,930.77
2017-03-23T01:53:53.613Z,930.77
2017-03-23T01:54:12.928Z,930.75
2017-03-23T01:54:32.255Z,930.75
2017-03-23T01:54:51.594Z,930.73
2017-03-23T01:55:09.897Z,930.7
2017-03-23T01:55:29.204Z,930.74
2017-03-23T01:55:48.541Z,930.75
2017-03-23T01:56:07.332Z,930.73
2017-03-23T01:56:26.172Z,930.71
2017-03-23T01:56:45.512Z,930.72
2017-03-23T01:57:04.364Z,930.71
2017-03-23T01:57:23.193Z,930.71
2017-03-23T01:57:42.522Z,930.7
2017-03-23T01:58:01.859Z,930.67
2017-03-23T01:58:20.652Z,930.68
2017-03-23T01:58:39.528Z,930.69
2017-03-23T01:58:58.333Z,930.68
2017-03-23T01:59:17.135Z,930.68
2017-03-23T01:59:35.442Z,930.66
2017-03-23T01:59:54.762Z,930.67
2017-03-23T02:00:14.229Z,930.65
2017-03-23T02:00:32.513Z,930.64
2017-03-23T02:00:51.834Z,930.61
2017-03-23T02:01:11.173Z,930.6
2017-03-23T02:01:30.009Z,930.61
2017-03-23T02:01:49.373Z,930.62
2017-03-23T02:02:08.224Z,930.58
2017-03-23T02:02:27.039Z,930.61
2017-03-23T02:02:46.581Z,930.58
2017-03-23T02:03:05.419Z,930.61
2017-03-23T02:03:24.731Z,930.59
2017-03-23T02:03:43.554Z,930.59
2017-03-23T02:04:02.873Z,930.57
2017-03-23T02:04:21.671Z,930.59
2017-03-23T02:04:41.012Z,930.58
2017-03-23T02:05:00.420Z,930.6
2017-03-23T02:05:19.750Z,930.6
2017-03-23T02:05:38.574Z,930.55
2017-03-23T02:05:57.917Z,930.61
2017-03-23T02:06:16.719Z,930.55
2017-03-23T02:06:34.492Z,930.58
2017-03-23T02:06:53.308Z,930.6
2017-03-23T02:07:12.646Z,930.58
2017-03-23T02:07:31.978Z,930.59
2017-03-23T02:07:50.801Z,930.58
2017-03-23T02:08:10.140Z,930.61
2017-03-23T02:08:29.478Z,930.6
2017-03-23T02:08:48.838Z,930.56
2017-03-23T02:09:08.194Z,930.56
2017-03-23T02:09:27.557Z,930.57
2017-03-23T02:09:46.894Z,930.58
2017-03-23T02:10:06.235Z,930.56
2017-03-23T02:10:25.048Z,930.59
2017-03-23T02:10:43.905Z,930.58
2017-03-23T02:11:03.419Z,930.62
2017-03-23T02:11:22.823Z,930.61
2017-03-23T02:11:41.627Z,930.61
2017-03-23T02:11:59.912Z,930.63
2017-03-23T02:12:19.256Z,930.62
2017-03-23T02:12:38.063Z,930.65
2017-03-23T02:12:56.401Z,930.57
2017-03-23T02:13:15.769Z,930.61
2017-03-23T02:13:34.577Z,930.63
2017-03-23T02:13:53.413Z,930.58
2017-03-23T02:14:12.792Z,930.59
2017-03-23T02:14:32.132Z,930.63
2017-03-23T02:14:50.931Z,930.62
2017-03-23T02:15:09.754Z,930.59
2017-03-23T02:15:29.113Z,930.62
2017-03-23T02:15:47.969Z,930.61
2017-03-23T02:16:06.806Z,930.59
2017-03-23T02:16:26.116Z,930.56
2017-03-23T02:16:45.457Z,930.57
2017-03-23T02:17:04.268Z,930.58
2017-03-23T02:17:23.595Z,930.57
2017-03-23T02:17:42.377Z,930.57
2017-03-23T02:18:00.648Z,930.61
2017-03-23T02:18:19.426Z,930.62
2017-03-23T02:18:38.757Z,930.55
2017-03-23T02:18:58.081Z,930.57
2017-03-23T02:19:16.348Z,930.55
2017-03-23T02:19:35.683Z,930.56
2017-03-23T02:19:55.056Z,930.52
2017-03-23T02:20:14.476Z,930.52
2017-03-23T02:20:33.301Z,930.53
2017-03-23T02:20:52.114Z,930.58
2017-03-23T02:21:10.416Z,930.49
2017-03-23T02:21:29.761Z,930.5
2017-03-23T02:21:49.071Z,930.54
2017-03-23T02:22:07.395Z,930.51
2017-03-23T02:22:26.718Z,930.5
2017-03-23T02:22:46.024Z,930.56
2017-03-23T02:23:04.863Z,930.55
2017-03-23T02:23:24.238Z,930.48
2017-03-23T02:23:43.538Z,930.5
2017-03-23T02:24:02.351Z,930.53
2017-03-23T02:24:21.682Z,930.45
2017-03-23T02:24:40.998Z,930.46
2017-03-23T02:24:59.822Z,930.48
2017-03-23T02:25:18.836Z,930.49
2017-03-23T02:25:38.144Z,930.47
2017-03-23T02:25:56.444Z,930.46
2017-03-23T02:26:15.807Z,930.43
2017-03-23T02:26:35.152Z,930.47
2017-03-23T02:26:53.981Z,930.46
2017-03-23T02:27:12.802Z,930.44
2017-03-23T02:27:32.137Z,930.46
2017-03-23T02:27:50.974Z,930.42
2017-03-23T02:28:10.316Z,930.38
2017-03-23T02:28:29.618Z,930.45
2017-03-23T02:28:48.939Z,930.38
2017-03-23T02:29:08.258Z,930.4
2017-03-23T02:29:27.048Z,930.37
2017-03-23T02:29:45.831Z,930.46
2017-03-23T02:30:04.666Z,930.45
2017-03-23T02:30:24.018Z,930.41
2017-03-23T02:30:42.826Z,930.43
2017-03-23T02:31:01.640Z,930.44
2017-03-23T02:31:21.011Z,930.37
2017-03-23T02:31:39.812Z,930.39
2017-03-23T02:31:59.141Z,930.42
2017-03-23T02:32:18.488Z,930.39
2017-03-23T02:32:36.790Z,930.38
2017-03-23T02:32:55.598Z,930.41
2017-03-23T02:33:14.928Z,930.36
2017-03-23T02:33:33.765Z,930.41
2017-03-23T02:33:53.112Z,930.4
2017-03-23T02:34:12.431Z,930.4
2017-03-23T02:34:31.251Z,930.37
2017-03-23T02:34:50.565Z,930.38
2017-03-23T02:35:09.901Z,930.37
2017-03-23T02:35:29.242Z,930.35
2017-03-23T02:35:48.029Z,930.38
2017-03-23T02:36:07.401Z,930.37
2017-03-23T02:36:26.761Z,930.36
2017-03-23T02:36:45.041Z,930.37
2017-03-23T02:37:03.855Z,930.34
2017-03-23T02:37:22.658Z,930.35
2017-03-23T02:37:41.983Z,930.35
2017-03-23T02:38:00.803Z,930.33
2017-03-23T02:38:19.105Z,930.31
2017-03-23T02:38:37.913Z,930.32
2017-03-23T02:38:57.222Z,930.3
2017-03-23T02:39:16.607Z,930.27
2017-03-23T02:39:35.942Z,930.26
2017-03-23T02:39:55.287Z,930.21
2017-03-23T02:40:14.110Z,930.23
2017-03-23T02:40:32.416Z,930.23
2017-03-23T02:40:51.734Z,930.25
2017-03-23T02:41:10.044Z,930.27
2017-03-23T02:41:29.388Z,930.25
2017-03-23T02:41:48.214Z,930.19
2017-03-23T02:42:07.557Z,930.21
2017-03-23T02:42:26.894Z,930.2
2017-03-23T02:42:46.234Z,930.2
2017-03-23T02:43:05.612Z,930.21
2017-03-23T02:43:24.943Z,930.2
2017-03-23T02:43:44.276Z,930.21
2017-03-23T02:44:03.110Z,930.25
2017-03-23T02:44:21.945Z,930.23
2017-03-23T02:45:14.778Z,930.2
2017-03-23T02:45:33.583Z,930.17
2017-03-23T02:45:52.951Z,930.11
2017-03-23T02:46:11.766Z,930.18
2017-03-23T02:46:31.097Z,930.19
2017-03-23T02:46:49.894Z,930.12
2017-03-23T02:47:09.223Z,930.19
2017-03-23T02:47:28.030Z,930.18
2017-03-23T02:47:47.375Z,930.12
2017-03-23T02:48:06.211Z,930.18
2017-03-23T02:48:25.022Z,930.18
2017-03-23T02:48:44.348Z,930.16
2017-03-23T02:49:03.686Z,930.14
2017-03-23T02:49:22.511Z,930.19
2017-03-23T02:49:40.838Z,930.18
2017-03-23T02:50:00.233Z,930.15
2017-03-23T02:50:19.592Z,930.22
2017-03-23T02:50:38.929Z,930.15
2017-03-23T02:50:58.268Z,930.12
2017-03-23T02:51:17.082Z,930.14
2017-03-23T02:51:36.409Z,930.15
2017-03-23T02:51:55.216Z,930.07
2017-03-23T02:52:13.494Z,930.08
2017-03-23T02:52:32.840Z,930.15
2017-03-23T02:52:52.142Z,930.13
2017-03-23T02:53:10.459Z,930.11
2017-03-23T02:53:29.840Z,930.13
2017-03-23T02:53:49.182Z,930.13
2017-03-23T02:54:08.526Z,930.09
2017-03-23T02:54:27.860Z,930.13
2017-03-23T02:54:47.188Z,930.08
2017-03-23T02:55:06.065Z,930.11
2017-03-23T02:55:25.398Z,930.09
2017-03-23T02:55:44.754Z,930.07
2017-03-23T02:56:03.587Z,930.06
2017-03-23T02:56:22.934Z,930.08
2017-03-23T02:56:42.283Z,930.06
2017-03-23T02:57:00.575Z,930.05
2017-03-23T02:57:19.885Z,930.08
2017-03-23T02:57:38.184Z,930
2017-03-23T02:57:57.483Z,930.06
2017-03-23T02:58:15.807Z,930.02
2017-03-23T02:58:35.122Z,930.04
2017-03-23T02:58:54.466Z,930.05
2017-03-23T02:59:13.797Z,930.09
2017-03-23T02:59:32.604Z,930.08
2017-03-23T02:59:51.939Z,930.1
2017-03-23T03:00:10.769Z,930.1
2017-03-23T03:00:29.572Z,930.04
2017-03-23T03:00:48.389Z,930.06
2017-03-23T03:01:07.720Z,930.06
2017-03-23T03:01:26.557Z,930.03
2017-03-23T03:01:45.894Z,930.04
2017-03-23T03:02:04.716Z,930.02
2017-03-23T03:02:24.065Z,930
2017-03-23T03:02:43.393Z,930.01
2017-03-23T03:03:02.209Z,930.02
2017-03-23T03:03:21.542Z,930.03
2017-03-23T03:03:40.853Z,929.99
2017-03-23T03:03:59.693Z,930.04
2017-03-23T03:04:19.025Z,930.05
2017-03-23T03:04:37.860Z,930.07
2017-03-23T03:04:56.695Z,930.01
2017-03-23T03:05:15.506Z,930.04
2017-03-23T03:05:33.821Z,930.01
2017-03-23T03:05:53.167Z,930.03
2017-03-23T03:06:12.033Z,930.02
2017-03-23T03:06:31.362Z,929.99
2017-03-23T03:06:50.686Z,930
2017-03-23T03:07:10.024Z,930.01
2017-03-23T03:07:29.395Z,929.97
2017-03-23T03:07:48.245Z,929.97
2017-03-23T03:08:07.054Z,929.97
2017-03-23T03:08:26.372Z,930
2017-03-23T03:08:44.662Z,929.99
2017-03-23T03:09:03.489Z,929.95
2017-03-23T03:09:22.823Z,929.91
2017-03-23T03:09:41.640Z,929.94
2017-03-23T03:10:00.425Z,929.93
2017-03-23T03:10:19.797Z,929.96
2017-03-23T03:10:38.582Z,929.96
2017-03-23T03:10:57.908Z,929.95
2017-03-23T03:11:17.252Z,929.9
2017-03-23T03:11:36.070Z,929.92
2017-03-23T03:11:55.423Z,929.92
2017-03-23T03:12:14.232Z,929.89
2017-03-23T03:12:33.044Z,929.9
2017-03-23T03:12:52.364Z,929.92
2017-03-23T03:13:11.673Z,929.91
2017-03-23T03:13:31.012Z,929.94
2017-03-23T03:13:50.362Z,929.89
2017-03-23T03:14:09.182Z,929.92
2017-03-23T03:14:28.531Z,929.92
2017-03-23T03:14:47.872Z,929.94
2017-03-23T03:15:07.060Z,929.92
2017-03-23T03:15:26.392Z,929.9
2017-03-23T03:15:45.230Z,929.92
2017-03-23T03:16:03.520Z,929.9
2017-03-23T03:16:22.332Z,929.94
2017-03-23T03:16:41.701Z,929.88
2017-03-23T03:17:00.008Z,929.9
2017-03-23T03:17:19.346Z,929.93
2017-03-23T03:17:38.664Z,929.94
2017-03-23T03:17:57.479Z,929.93
2017-03-23T03:18:16.285Z,929.95
2017-03-23T03:18:35.617Z,929.92
2017-03-23T03:18:54.426Z,929.88
2017-03-23T03:19:13.261Z,929.91
2017-03-23T03:19:32.592Z,929.91
2017-03-23T03:19:51.413Z,929.88
2017-03-23T03:20:09.731Z,929.92
2017-03-23T03:20:29.070Z,929.89
2017-03-23T03:20:47.890Z,929.88
2017-03-23T03:21:06.679Z,929.87
2017-03-23T03:21:25.543Z,929.92
2017-03-23T03:21:44.984Z,929.88
2017-03-23T03:22:04.341Z,929.87
2017-03-23T03:22:23.192Z,929.86
2017-03-23T03:22:42.003Z,929.89
2017-03-23T03:23:01.336Z,929.82
2017-03-23T03:23:20.688Z,929.9
2017-03-23T03:23:40.054Z,929.91
2017-03-23T03:23:59.400Z,929.87
2017-03-23T03:24:18.762Z,929.88
2017-03-23T03:24:38.125Z,929.89
2017-03-23T03:24:56.415Z,929.89
2017-03-23T03:25:14.706Z,929.87
2017-03-23T03:25:34.024Z,929.88
2017-03-23T03:25:52.852Z,929.89
2017-03-23T03:26:12.165Z,929.88
2017-03-23T03:26:31.528Z,929.88
2017-03-23T03:26:50.899Z,929.87
2017-03-23T03:27:10.239Z,929.85
2017-03-23T03:27:29.538Z,929.83
2017-03-23T03:27:47.837Z,929.88
2017-03-23T03:28:06.668Z,929.85
2017-03-23T03:28:26.014Z,929.87
2017-03-23T03:28:44.861Z,929.86
2017-03-23T03:29:04.195Z,929.85
2017-03-23T03:29:23.517Z,929.83
2017-03-23T03:29:42.831Z,929.85
2017-03-23T03:30:01.114Z,929.83
2017-03-23T03:30:20.448Z,929.82
2017-03-23T03:30:39.276Z,929.8
2017-03-23T03:30:58.598Z,929.8
2017-03-23T03:31:17.910Z,929.83
2017-03-23T03:31:37.283Z,929.82
2017-03-23T03:31:56.070Z,929.83
2017-03-23T03:32:15.425Z,929.81
2017-03-23T03:32:34.221Z,929.89
2017-03-23T03:32:53.819Z,929.81
2017-03-23T03:33:13.446Z,929.87
2017-03-23T03:33:32.761Z,929.89
2017-03-23T03:33:51.582Z,929.88
2017-03-23T03:34:10.395Z,929.86
2017-03-23T03:34:29.731Z,929.92
2017-03-23T03:34:49.048Z,929.85
2017-03-23T03:35:07.349Z,929.85
2017-03-23T03:35:26.686Z,929.87
2017-03-23T03:35:45.492Z,929.9
2017-03-23T03:36:04.296Z,929.87
2017-03-23T03:36:23.110Z,929.9
2017-03-23T03:36:41.948Z,929.85
2017-03-23T03:37:00.792Z,929.88
2017-03-23T03:37:20.144Z,929.85
2017-03-23T03:37:38.940Z,929.89
2017-03-23T03:37:58.277Z,929.85
2017-03-23T03:38:17.063Z,929.83
2017-03-23T03:38:35.877Z,929.86
2017-03-23T03:38:54.698Z,929.82
2017-03-23T03:39:13.525Z,929.79
2017-03-23T03:39:32.873Z,929.75
2017-03-23T03:39:52.221Z,929.78
2017-03-23T03:40:11.037Z,929.79
2017-03-23T03:40:30.378Z,929.78
2017-03-23T03:40:49.710Z,929.81
2017-03-23T03:41:09.048Z,929.8
2017-03-23T03:41:27.870Z,929.79
2017-03-23T03:41:46.681Z,929.82
2017-03-23T03:42:04.990Z,929.81
2017-03-23T03:42:23.850Z,929.78
2017-03-23T03:42:43.166Z,929.81
2017-03-23T03:43:02.488Z,929.83
2017-03-23T03:43:21.292Z,929.83
2017-03-23T03:43:40.633Z,929.78
2017-03-23T03:43:59.482Z,929.79
2017-03-23T03:44:18.271Z,929.75
2017-03-23T03:44:37.602Z,929.78
2017-03-23T03:44:56.913Z,929.8
2017-03-23T03:45:15.725Z,929.77
2017-03-23T03:45:34.545Z,929.79
2017-03-23T03:45:53.896Z,929.77
2017-03-23T03:46:12.725Z,929.76
2017-03-23T03:46:32.094Z,929.77
2017-03-23T03:46:50.908Z,929.76
2017-03-23T03:47:10.258Z,929.74
2017-03-23T03:47:29.059Z,929.76
2017-03-23T03:47:47.912Z,929.75
2017-03-23T03:48:06.726Z,929.76
2017-03-23T03:48:25.538Z,929.75
2017-03-23T03:48:44.330Z,929.69
2017-03-23T03:49:03.122Z,929.71
2017-03-23T03:49:22.438Z,929.71
2017-03-23T03:49:41.281Z,929.71
2017-03-23T03:50:00.079Z,929.73
2017-03-23T03:50:18.036Z,929.68
2017-03-23T03:50:37.368Z,929.73
2017-03-23T03:50:55.674Z,929.71
2017-03-23T03:51:14.990Z,929.67
2017-03-23T03:51:34.311Z,929.67
2017-03-23T03:51:52.604Z,929.67
2017-03-23T03:52:10.879Z,929.65
2017-03-23T03:52:30.201Z,929.69
2017-03-23T03:52:49.516Z,929.66
2017-03-23T03:53:07.813Z,929.63
2017-03-23T03:53:27.179Z,929.65
2017-03-23T03:53:44.957Z,929.62
2017-03-23T03:54:04.282Z,929.65
2017-03-23T03:54:22.554Z,929.62
2017-03-23T03:54:41.877Z,929.63
2017-03-23T03:55:00.695Z,929.63
2017-03-23T03:55:20.045Z,929.62
2017-03-23T03:55:39.380Z,929.58
2017-03-23T03:55:58.712Z,929.6
2017-03-23T03:56:18.040Z,929.59
2017-03-23T03:56:36.870Z,929.58
2017-03-23T03:56:55.673Z,929.59
2017-03-23T03:57:14.993Z,929.6
2017-03-23T03:57:34.359Z,929.56
2017-03-23T03:57:53.172Z,929.57
2017-03-23T03:58:11.977Z,929.61
2017-03-23T03:58:31.327Z,929.58
2017-03-23T03:58:50.674Z,929.59
2017-03-23T03:59:10.004Z,929.61
2017-03-23T03:59:28.847Z,929.6
2017-03-23T03:59:48.270Z,929.61
2017-03-23T04:00:07.113Z,929.58
2017-03-23T04:00:26.417Z,929.58
2017-03-23T04:00:45.270Z,929.57
2017-03-23T04:01:04.054Z,929.56